createdAt,value
2018-03-26T00:00:22.182Z,16.59
2018-03-26T00:01:22.096Z,13.16
2018-03-26T00:02:22.042Z,12.97
2018-03-26T00:03:21.956Z,11.92
2018-03-26T00:04:21.903Z,12.87
2018-03-26T00:05:21.819Z,14.01
2018-03-26T00:06:21.749Z,14.11
2018-03-26T00:07:21.671Z,13.82
2018-03-26T00:08:21.592Z,14.69
2018-03-26T00:09:21.518Z,13.25
2018-03-26T00:10:21.459Z,13.25
2018-03-26T00:11:21.370Z,14.50
2018-03-26T00:12:21.304Z,14.78
2018-03-26T00:13:21.252Z,15.26
2018-03-26T00:14:21.186Z,16.02
2018-03-26T00:15:21.107Z,17.16
2018-03-26T00:16:21.017Z,17.74
2018-03-26T00:17:20.982Z,16.89
2018-03-26T00:18:20.892Z,17.17
2018-03-26T00:19:20.806Z,18.21
2018-03-26T00:20:20.749Z,18.51
2018-03-26T00:21:20.667Z,18.60
2018-03-26T00:22:20.606Z,18.59
2018-03-26T00:23:20.512Z,19.46
2018-03-26T00:24:20.456Z,20.03
2018-03-26T00:25:20.384Z,19.37
2018-03-26T00:26:20.316Z,17.64
2018-03-26T00:27:20.237Z,17.83
2018-03-26T00:28:20.156Z,17.74
2018-03-26T00:29:20.094Z,17.74
2018-03-26T00:30:20.015Z,18.51
2018-03-26T00:31:19.942Z,19.17
2018-03-26T00:32:19.888Z,19.08
2018-03-26T00:33:19.814Z,19.27
2018-03-26T00:34:19.764Z,18.88
2018-03-26T00:35:19.663Z,19.18
2018-03-26T00:36:19.603Z,19.08
2018-03-26T00:37:19.532Z,18.59
2018-03-26T00:38:19.494Z,18.59
2018-03-26T00:39:19.418Z,18.98
2018-03-26T00:40:19.310Z,19.17
2018-03-26T00:41:19.217Z,18.12
2018-03-26T00:42:19.140Z,16.30
2018-03-26T00:43:19.087Z,15.35
2018-03-26T00:44:19.021Z,15.45
2018-03-26T00:45:18.940Z,15.26
2018-03-26T00:46:18.881Z,15.06
2018-03-26T00:47:18.814Z,14.97
2018-03-26T00:48:18.736Z,14.40
2018-03-26T00:49:18.658Z,13.25
2018-03-26T00:50:18.586Z,12.87
2018-03-26T00:51:18.500Z,11.72
2018-03-26T00:52:18.442Z,10.87
2018-03-26T00:53:18.369Z,10.87
2018-03-26T00:54:18.301Z,12.87
2018-03-26T00:55:18.210Z,14.01
2018-03-26T00:56:18.147Z,14.97
2018-03-26T00:57:18.098Z,15.35
2018-03-26T00:58:17.996Z,15.26
2018-03-26T00:59:17.948Z,15.54
2018-03-26T01:00:17.852Z,17.64
2018-03-26T01:01:17.782Z,17.74
2018-03-26T01:02:17.775Z,17.83
2018-03-26T01:03:17.635Z,17.26
2018-03-26T01:04:17.627Z,17.74
2018-03-26T01:05:17.511Z,16.97
2018-03-26T01:06:17.425Z,18.02
2018-03-26T01:07:17.361Z,19.17
2018-03-26T01:08:17.303Z,19.55
2018-03-26T01:09:17.252Z,20.31
2018-03-26T01:10:17.124Z,20.21
2018-03-26T01:11:17.058Z,19.35
2018-03-26T01:12:16.983Z,18.98
2018-03-26T01:13:16.915Z,19.74
2018-03-26T01:14:16.858Z,18.40
2018-03-26T01:15:16.820Z,17.54
2018-03-26T01:16:16.714Z,16.59
2018-03-26T01:17:16.627Z,16.78
2018-03-26T01:18:16.593Z,16.69
2018-03-26T01:19:16.494Z,16.88
2018-03-26T01:20:16.411Z,16.21
2018-03-26T01:21:16.361Z,16.69
2018-03-26T01:22:16.281Z,16.11
2018-03-26T01:23:16.213Z,16.78
2018-03-26T01:24:16.142Z,16.30
2018-03-26T01:25:16.061Z,15.16
2018-03-26T01:26:15.994Z,14.39
2018-03-26T01:27:15.902Z,13.92
2018-03-26T01:28:15.835Z,14.59
2018-03-26T01:29:15.757Z,14.11
2018-03-26T01:30:15.700Z,14.78
2018-03-26T01:31:15.627Z,15.25
2018-03-26T01:32:15.562Z,15.16
2018-03-26T01:33:15.488Z,16.21
2018-03-26T01:34:15.426Z,16.96
2018-03-26T01:35:15.351Z,16.30
2018-03-26T01:36:15.264Z,16.97
2018-03-26T01:37:15.196Z,17.72
2018-03-26T01:38:15.126Z,16.96
2018-03-26T01:39:15.054Z,17.16
2018-03-26T01:40:14.973Z,17.64
2018-03-26T01:41:14.916Z,17.54
2018-03-26T01:42:14.835Z,16.68
2018-03-26T01:43:14.771Z,16.20
2018-03-26T01:44:14.702Z,16.20
2018-03-26T01:45:14.630Z,16.96
2018-03-26T01:46:14.537Z,16.49
2018-03-26T01:47:14.494Z,15.44
2018-03-26T01:48:14.393Z,15.06
2018-03-26T01:49:14.321Z,15.16
2018-03-26T01:50:14.251Z,15.06
2018-03-26T01:51:14.176Z,13.82
2018-03-26T01:52:14.121Z,13.82
2018-03-26T01:53:14.040Z,13.06
2018-03-26T01:54:13.956Z,12.96
2018-03-26T01:55:13.954Z,13.15
2018-03-26T01:56:13.813Z,13.34
2018-03-26T01:57:13.760Z,13.92
2018-03-26T01:58:13.671Z,13.72
2018-03-26T01:59:13.614Z,13.34
2018-03-26T02:00:13.542Z,14.01
2018-03-26T02:01:13.455Z,14.68
2018-03-26T02:02:13.379Z,14.96
2018-03-26T02:03:13.332Z,16.02
2018-03-26T02:04:13.235Z,16.11
2018-03-26T02:05:13.163Z,16.21
2018-03-26T02:06:13.091Z,16.78
2018-03-26T02:07:13.013Z,16.77
2018-03-26T02:08:12.977Z,15.44
2018-03-26T02:09:12.914Z,16.40
2018-03-26T02:10:12.806Z,16.50
2018-03-26T02:11:12.731Z,16.11
2018-03-26T02:12:12.663Z,16.11
2018-03-26T02:13:12.598Z,16.96
2018-03-26T02:14:12.524Z,17.83
2018-03-26T02:15:12.455Z,17.64
2018-03-26T02:16:12.388Z,17.74
2018-03-26T02:17:12.313Z,17.92
2018-03-26T02:18:12.253Z,16.96
2018-03-26T02:19:12.154Z,16.77
2018-03-26T02:20:12.119Z,15.44
2018-03-26T02:21:12.008Z,14.39
2018-03-26T02:22:11.947Z,14.11
2018-03-26T02:23:11.859Z,14.96
2018-03-26T02:24:11.810Z,14.29
2018-03-26T02:25:11.729Z,14.01
2018-03-26T02:26:11.664Z,13.24
2018-03-26T02:27:11.577Z,12.39
2018-03-26T02:28:11.520Z,12.01
2018-03-26T02:29:11.458Z,12.48
2018-03-26T02:30:11.366Z,11.91
2018-03-26T02:31:11.283Z,12.20
2018-03-26T02:32:11.234Z,10.20
2018-03-26T02:33:11.135Z,10.29
2018-03-26T02:34:11.089Z,9.34
2018-03-26T02:35:11.011Z,10.58
2018-03-26T02:36:10.919Z,9.53
2018-03-26T02:37:10.850Z,8.86
2018-03-26T02:38:10.793Z,8.86
2018-03-26T02:39:10.704Z,7.62
2018-03-26T02:40:10.637Z,8.58
2018-03-26T02:41:10.568Z,9.81
2018-03-26T02:42:10.506Z,10.48
2018-03-26T02:43:10.458Z,10.29
2018-03-26T02:44:10.364Z,10.58
2018-03-26T02:45:10.273Z,9.81
2018-03-26T02:46:10.216Z,9.34
2018-03-26T02:47:10.148Z,9.81
2018-03-26T02:48:10.051Z,10.48
2018-03-26T02:49:09.992Z,10.68
2018-03-26T02:50:09.940Z,10.48
2018-03-26T02:51:09.856Z,9.44
2018-03-26T02:52:09.766Z,8.76
2018-03-26T02:53:09.885Z,8.39
2018-03-26T02:54:09.620Z,8.58
2018-03-26T02:55:09.590Z,7.34
2018-03-26T02:56:09.474Z,5.24
2018-03-26T02:57:09.420Z,3.91
2018-03-26T02:58:09.343Z,3.52
2018-03-26T02:59:09.261Z,3.52
2018-03-26T03:00:09.187Z,3.91
2018-03-26T03:01:09.134Z,3.23
2018-03-26T03:02:09.041Z,3.33
2018-03-26T03:03:08.994Z,3.14
2018-03-26T03:04:08.927Z,3.52
2018-03-26T03:05:08.838Z,4.10
2018-03-26T03:06:08.771Z,6.10
2018-03-26T03:07:08.684Z,7.15
2018-03-26T03:08:08.611Z,8.10
2018-03-26T03:09:08.539Z,9.05
2018-03-26T03:10:08.478Z,9.15
2018-03-26T03:11:08.404Z,8.20
2018-03-26T03:12:08.336Z,6.96
2018-03-26T03:13:08.245Z,7.62
2018-03-26T03:14:08.171Z,8.76
2018-03-26T03:15:08.097Z,9.15
2018-03-26T03:16:08.024Z,10.48
2018-03-26T03:17:07.955Z,10.48
2018-03-26T03:18:07.887Z,11.82
2018-03-26T03:19:07.829Z,13.06
2018-03-26T03:20:07.739Z,12.68
2018-03-26T03:21:07.704Z,12.01
2018-03-26T03:22:07.616Z,12.87
2018-03-26T03:23:07.562Z,13.53
2018-03-26T03:24:07.477Z,12.96
2018-03-26T03:25:07.394Z,12.01
2018-03-26T03:26:07.315Z,12.58
2018-03-26T03:27:07.254Z,13.34
2018-03-26T03:28:07.184Z,12.87
2018-03-26T03:29:07.102Z,12.96
2018-03-26T03:30:07.018Z,12.96
2018-03-26T03:31:06.978Z,13.24
2018-03-26T03:32:06.877Z,15.16
2018-03-26T03:33:06.820Z,15.63
2018-03-26T03:34:06.743Z,15.25
2018-03-26T03:35:06.680Z,13.92
2018-03-26T03:36:06.591Z,14.68
2018-03-26T03:37:06.530Z,13.06
2018-03-26T03:38:06.472Z,11.72
2018-03-26T03:39:06.388Z,11.91
2018-03-26T03:40:06.313Z,10.96
2018-03-26T03:41:06.222Z,10.10
2018-03-26T03:42:06.156Z,11.82
2018-03-26T03:43:06.083Z,11.82
2018-03-26T03:44:06.009Z,12.96
2018-03-26T03:45:05.953Z,13.34
2018-03-26T03:46:05.869Z,14.39
2018-03-26T03:47:05.796Z,14.01
2018-03-26T03:48:05.723Z,13.15
2018-03-26T03:49:05.650Z,12.96
2018-03-26T03:50:05.580Z,13.53
2018-03-26T03:51:05.506Z,13.34
2018-03-26T03:52:05.442Z,15.16
2018-03-26T03:53:05.357Z,15.16
2018-03-26T03:54:05.287Z,15.16
2018-03-26T03:55:05.248Z,14.20
2018-03-26T03:56:05.146Z,12.58
2018-03-26T03:57:05.095Z,12.96
2018-03-26T03:58:05.030Z,13.72
2018-03-26T03:59:04.933Z,14.39
2018-03-26T04:00:04.899Z,15.72
2018-03-26T04:01:04.796Z,15.34
2018-03-26T04:02:04.728Z,16.49
2018-03-26T04:03:04.661Z,16.39
2018-03-26T04:04:04.584Z,16.49
2018-03-26T04:05:04.512Z,17.82
2018-03-26T04:06:04.442Z,17.72
2018-03-26T04:07:04.347Z,18.01
2018-03-26T04:08:04.283Z,18.49
2018-03-26T04:09:04.222Z,17.72
2018-03-26T04:10:04.133Z,18.11
2018-03-26T04:11:04.082Z,17.72
2018-03-26T04:12:03.993Z,17.16
2018-03-26T04:13:03.935Z,16.49
2018-03-26T04:14:03.849Z,16.20
2018-03-26T04:15:03.776Z,16.30
2018-03-26T04:16:03.731Z,16.68
2018-03-26T04:17:03.637Z,18.11
2018-03-26T04:18:03.590Z,18.01
2018-03-26T04:19:03.501Z,19.25
2018-03-26T04:20:03.447Z,19.92
2018-03-26T04:21:03.350Z,19.35
2018-03-26T04:22:03.269Z,19.82
2018-03-26T04:23:03.193Z,20.01
2018-03-26T04:24:03.126Z,20.11
2018-03-26T04:25:03.055Z,20.49
2018-03-26T04:26:02.996Z,21.44
2018-03-26T04:27:02.928Z,21.55
2018-03-26T04:28:02.842Z,21.55
2018-03-26T04:29:02.768Z,20.78
2018-03-26T04:30:02.712Z,19.35
2018-03-26T04:31:02.627Z,18.68
2018-03-26T04:32:02.585Z,18.11
2018-03-26T04:33:02.497Z,18.40
2018-03-26T04:34:02.428Z,19.35
2018-03-26T04:35:02.333Z,19.82
2018-03-26T04:36:02.261Z,19.25
2018-03-26T04:37:02.189Z,19.93
2018-03-26T04:38:02.137Z,19.92
2018-03-26T04:39:02.067Z,19.06
2018-03-26T04:40:01.994Z,19.06
2018-03-26T04:41:01.926Z,18.77
2018-03-26T04:42:01.855Z,17.25
2018-03-26T04:43:01.773Z,16.49
2018-03-26T04:44:01.707Z,15.92
2018-03-26T04:45:01.631Z,15.16
2018-03-26T04:46:01.580Z,14.58
2018-03-26T04:47:01.490Z,14.77
2018-03-26T04:48:01.395Z,14.87
2018-03-26T04:49:01.329Z,16.11
2018-03-26T04:50:01.257Z,15.44
2018-03-26T04:51:01.198Z,14.96
2018-03-26T04:52:01.128Z,15.34
2018-03-26T04:53:01.051Z,15.63
2018-03-26T04:54:00.964Z,15.06
2018-03-26T04:55:00.925Z,14.48
2018-03-26T04:56:00.833Z,14.39
2018-03-26T04:57:00.768Z,14.29
2018-03-26T04:58:00.696Z,12.96
2018-03-26T04:59:00.659Z,12.39
2018-03-26T05:00:00.537Z,12.20
2018-03-26T05:01:00.469Z,11.44
2018-03-26T05:02:00.413Z,11.34
2018-03-26T05:03:00.321Z,10.96
2018-03-26T05:04:00.251Z,10.77
2018-03-26T05:05:00.200Z,11.44
2018-03-26T05:06:00.097Z,11.05
2018-03-26T05:07:00.029Z,10.20
2018-03-26T05:07:59.980Z,9.34
2018-03-26T05:08:59.900Z,7.24
2018-03-26T05:09:59.829Z,5.81
2018-03-26T05:10:59.742Z,5.62
2018-03-26T05:11:59.670Z,4.67
2018-03-26T05:12:59.592Z,4.86
2018-03-26T05:13:59.516Z,5.24
2018-03-26T05:14:59.458Z,5.72
2018-03-26T05:15:59.378Z,5.62
2018-03-26T05:16:59.307Z,5.05
2018-03-26T05:17:59.259Z,4.57
2018-03-26T05:18:59.187Z,4.38
2018-03-26T05:19:59.106Z,5.05
2018-03-26T05:20:59.039Z,3.72
2018-03-26T05:21:58.947Z,3.33
2018-03-26T05:22:58.898Z,1.52
2018-03-26T05:23:58.823Z,1.52
2018-03-26T05:24:58.744Z,1.72
2018-03-26T05:25:58.656Z,1.14
2018-03-26T05:26:58.585Z,1.24
2018-03-26T05:27:58.521Z,2.67
2018-03-26T05:28:58.465Z,2.86
2018-03-26T05:29:58.371Z,2.86
2018-03-26T05:30:58.334Z,1.24
2018-03-26T05:31:58.222Z,0.57
2018-03-26T05:32:58.148Z,0.19
2018-03-26T05:33:58.075Z,0.00
2018-03-26T05:34:58.006Z,0.00
2018-03-26T05:35:57.948Z,0.00
2018-03-26T05:36:57.863Z,0.00
2018-03-26T05:37:57.803Z,0.00
2018-03-26T05:38:57.731Z,0.00
2018-03-26T05:39:57.672Z,0.00
2018-03-26T05:40:57.579Z,0.00
2018-03-26T05:41:57.520Z,0.00
2018-03-26T05:42:57.424Z,0.00
2018-03-26T05:43:57.385Z,0.00
2018-03-26T05:44:57.298Z,0.00
2018-03-26T05:45:57.215Z,0.00
2018-03-26T05:46:57.149Z,0.00
2018-03-26T05:47:57.079Z,0.00
2018-03-26T05:48:56.992Z,0.00
2018-03-26T05:49:56.938Z,0.00
2018-03-26T05:50:56.861Z,0.00
2018-03-26T05:51:56.798Z,0.00
2018-03-26T05:52:56.723Z,0.00
2018-03-26T05:53:56.641Z,0.00
2018-03-26T05:54:56.571Z,0.00
2018-03-26T05:55:56.509Z,0.00
2018-03-26T05:56:56.421Z,0.00
2018-03-26T05:57:56.361Z,0.00
2018-03-26T05:58:56.278Z,0.00
2018-03-26T05:59:56.211Z,0.00
2018-03-26T06:00:56.140Z,0.00
2018-03-26T06:01:56.063Z,0.00
2018-03-26T06:02:55.985Z,0.00
2018-03-26T06:03:55.906Z,0.00
2018-03-26T06:04:55.845Z,0.00
2018-03-26T06:05:55.785Z,0.00
2018-03-26T06:06:55.699Z,0.00
2018-03-26T06:07:55.629Z,0.00
2018-03-26T06:08:55.536Z,0.00
2018-03-26T06:09:55.464Z,0.00
2018-03-26T06:10:55.391Z,0.00
2018-03-26T06:11:55.321Z,0.00
2018-03-26T06:12:55.279Z,0.00
2018-03-26T06:13:55.190Z,0.00
2018-03-26T06:14:55.124Z,0.00
2018-03-26T06:15:55.061Z,0.00
2018-03-26T06:16:54.960Z,0.00
2018-03-26T06:17:54.899Z,0.00
2018-03-26T06:18:54.825Z,0.00
2018-03-26T06:19:54.760Z,0.00
2018-03-26T06:20:54.668Z,0.00
2018-03-26T06:21:54.617Z,0.00
2018-03-26T06:22:54.541Z,0.00
2018-03-26T06:23:54.465Z,0.00
2018-03-26T06:24:54.432Z,0.00
2018-03-26T06:25:54.310Z,0.00
2018-03-26T06:26:54.234Z,0.00
2018-03-26T06:27:54.158Z,0.00
2018-03-26T06:28:54.108Z,0.00
2018-03-26T06:29:54.029Z,0.00
2018-03-26T06:30:53.947Z,0.00
2018-03-26T06:31:53.885Z,0.00
2018-03-26T06:32:53.796Z,0.00
2018-03-26T06:33:53.724Z,0.00
2018-03-26T06:34:53.648Z,0.00
2018-03-26T06:35:53.611Z,0.00
2018-03-26T06:36:53.527Z,0.00
2018-03-26T06:37:53.432Z,0.00
2018-03-26T06:38:53.362Z,0.85
2018-03-26T06:39:53.301Z,0.48
2018-03-26T06:40:53.237Z,1.90
2018-03-26T06:41:53.154Z,2.09
2018-03-26T06:42:53.091Z,2.38
2018-03-26T06:43:53.021Z,2.67
2018-03-26T06:44:52.942Z,2.00
2018-03-26T06:45:52.856Z,3.14
2018-03-26T06:46:52.785Z,2.76
2018-03-26T06:47:52.716Z,3.43
2018-03-26T06:48:52.665Z,4.58
2018-03-26T06:49:52.591Z,4.58
2018-03-26T06:50:52.515Z,5.24
2018-03-26T06:51:52.434Z,6.01
2018-03-26T06:52:52.365Z,8.30
2018-03-26T06:53:52.303Z,9.06
2018-03-26T06:54:52.221Z,10.21
2018-03-26T06:55:52.146Z,10.68
2018-03-26T06:56:52.097Z,11.25
2018-03-26T06:57:52.032Z,10.49
2018-03-26T06:58:51.942Z,11.07
2018-03-26T06:59:51.859Z,10.59
2018-03-26T07:00:51.810Z,10.59
2018-03-26T07:01:51.722Z,10.30
2018-03-26T07:02:51.660Z,10.88
2018-03-26T07:03:51.611Z,11.35
2018-03-26T07:04:51.505Z,11.83
2018-03-26T07:05:51.436Z,12.88
2018-03-26T07:06:51.366Z,14.40
2018-03-26T07:07:51.318Z,15.46
2018-03-26T07:08:51.222Z,16.80
2018-03-26T07:09:51.158Z,18.52
2018-03-26T07:10:51.101Z,19.85
2018-03-26T07:11:51.032Z,20.52
2018-03-26T07:12:50.965Z,22.14
2018-03-26T07:13:50.877Z,22.24
2018-03-26T07:14:50.803Z,22.33
2018-03-26T07:15:50.733Z,22.53
2018-03-26T07:16:50.661Z,23.30
2018-03-26T07:17:50.588Z,23.78
2018-03-26T07:18:50.532Z,23.78
2018-03-26T07:19:50.460Z,23.29
2018-03-26T07:20:50.397Z,22.16
2018-03-26T07:21:50.333Z,21.48
2018-03-26T07:22:50.268Z,21.48
2018-03-26T07:23:50.191Z,22.25
2018-03-26T07:24:50.102Z,22.81
2018-03-26T07:25:50.048Z,23.21
2018-03-26T07:26:49.976Z,22.43
2018-03-26T07:27:49.918Z,23.00
2018-03-26T07:28:49.851Z,22.91
2018-03-26T07:29:49.748Z,22.53
2018-03-26T07:30:49.682Z,23.19
2018-03-26T07:31:49.627Z,23.19
2018-03-26T07:32:49.570Z,23.96
2018-03-26T07:33:49.470Z,25.69
2018-03-26T07:34:49.400Z,26.17
2018-03-26T07:35:49.349Z,27.22
2018-03-26T07:36:49.273Z,28.27
2018-03-26T07:37:49.196Z,30.08
2018-03-26T07:38:49.128Z,31.13
2018-03-26T07:39:49.064Z,32.97
2018-03-26T07:40:49.009Z,33.42
2018-03-26T07:41:48.939Z,34.30
2018-03-26T07:42:48.852Z,35.16
2018-03-26T07:43:48.802Z,36.21
2018-03-26T07:44:48.706Z,36.69
2018-03-26T07:45:48.658Z,36.50
2018-03-26T07:46:48.576Z,36.98
2018-03-26T07:47:48.506Z,37.07
2018-03-26T07:48:48.438Z,36.88
2018-03-26T07:49:48.369Z,37.26
2018-03-26T07:50:48.302Z,37.36
2018-03-26T07:51:48.264Z,39.08
2018-03-26T07:52:48.174Z,39.27
2018-03-26T07:53:48.090Z,39.08
2018-03-26T07:54:48.023Z,38.70
2018-03-26T07:55:47.972Z,38.41
2018-03-26T07:56:47.916Z,37.26
2018-03-26T07:57:47.816Z,35.53
2018-03-26T07:58:47.761Z,34.09
2018-03-26T07:59:47.688Z,32.95
2018-03-26T08:00:47.612Z,31.71
2018-03-26T08:01:47.570Z,31.32
2018-03-26T08:02:47.549Z,30.85
2018-03-26T08:03:47.406Z,30.46
2018-03-26T08:04:47.338Z,29.89
2018-03-26T08:05:47.271Z,27.97
2018-03-26T08:06:47.211Z,25.77
2018-03-26T08:07:47.126Z,24.53
2018-03-26T08:08:47.056Z,23.10
2018-03-26T08:09:46.984Z,21.48
2018-03-26T08:10:46.932Z,23.10
2018-03-26T08:11:46.846Z,21.77
2018-03-26T08:12:46.772Z,22.14
2018-03-26T08:13:46.716Z,22.24
2018-03-26T08:14:46.634Z,22.62
2018-03-26T08:15:46.589Z,22.81
2018-03-26T08:16:46.528Z,24.91
2018-03-26T08:17:46.448Z,26.45
2018-03-26T08:18:46.371Z,29.32
2018-03-26T08:19:46.286Z,31.80
2018-03-26T08:20:46.214Z,34.11
2018-03-26T08:21:46.144Z,34.59
2018-03-26T08:22:46.107Z,36.21
2018-03-26T08:23:46.056Z,36.88
2018-03-26T08:24:45.955Z,37.26
2018-03-26T08:25:45.912Z,38.60
2018-03-26T08:26:45.813Z,38.89
2018-03-26T08:27:45.730Z,37.46
2018-03-26T08:28:45.664Z,36.60
2018-03-26T08:29:45.612Z,37.84
2018-03-26T08:30:45.526Z,37.26
2018-03-26T08:31:45.475Z,38.03
2018-03-26T08:32:45.383Z,38.41
2018-03-26T08:33:45.348Z,39.18
2018-03-26T08:34:45.251Z,39.47
2018-03-26T08:35:45.176Z,39.96
2018-03-26T08:36:45.118Z,40.92
2018-03-26T08:37:45.036Z,41.30
2018-03-26T08:38:44.995Z,42.35
2018-03-26T08:39:44.912Z,43.12
2018-03-26T08:40:44.834Z,43.02
2018-03-26T08:41:44.783Z,43.12
2018-03-26T08:42:44.703Z,42.52
2018-03-26T08:43:44.653Z,42.71
2018-03-26T08:44:44.560Z,43.50
2018-03-26T08:45:44.508Z,42.61
2018-03-26T08:46:44.420Z,43.98
2018-03-26T08:47:44.369Z,45.31
2018-03-26T08:48:44.307Z,45.89
2018-03-26T08:49:44.319Z,46.66
2018-03-26T08:50:44.168Z,47.32
2018-03-26T08:51:44.098Z,48.28
2018-03-26T08:52:44.014Z,48.54
2018-03-26T08:53:43.946Z,47.68
2018-03-26T08:54:43.874Z,46.34
2018-03-26T08:55:43.814Z,45.67
2018-03-26T08:56:43.759Z,44.91
2018-03-26T08:57:43.662Z,44.12
2018-03-26T08:58:43.598Z,42.60
2018-03-26T08:59:43.526Z,41.45
2018-03-26T09:00:43.461Z,41.45
2018-03-26T09:01:43.386Z,42.79
2018-03-26T09:02:43.314Z,45.20
2018-03-26T09:03:43.252Z,47.49
2018-03-26T09:04:43.195Z,48.64
2018-03-26T09:05:43.146Z,49.88
2018-03-26T09:06:43.048Z,49.98
2018-03-26T09:07:42.972Z,50.35
2018-03-26T09:08:42.911Z,49.69
2018-03-26T09:09:42.834Z,50.74
2018-03-26T09:10:42.763Z,51.31
2018-03-26T09:11:42.700Z,51.43
2018-03-26T09:12:42.628Z,52.48
2018-03-26T09:13:42.577Z,52.96
2018-03-26T09:14:42.513Z,54.59
2018-03-26T09:15:42.422Z,54.97
2018-03-26T09:16:42.360Z,55.64
2018-03-26T09:17:42.282Z,55.83
2018-03-26T09:18:42.230Z,55.93
2018-03-26T09:19:42.142Z,55.90
2018-03-26T09:20:42.076Z,56.50
2018-03-26T09:21:42.001Z,56.69
2018-03-26T09:22:41.956Z,57.07
2018-03-26T09:23:41.881Z,57.07
2018-03-26T09:24:41.814Z,57.46
2018-03-26T09:25:41.733Z,56.88
2018-03-26T09:26:41.675Z,56.60
2018-03-26T09:27:41.607Z,57.07
2018-03-26T09:28:41.522Z,57.65
2018-03-26T09:29:41.481Z,57.17
2018-03-26T09:30:41.386Z,57.55
2018-03-26T09:31:41.362Z,57.36
2018-03-26T09:32:41.248Z,57.07
2018-03-26T09:33:41.198Z,57.75
2018-03-26T09:34:41.158Z,57.65
2018-03-26T09:35:41.064Z,57.65
2018-03-26T09:36:40.977Z,57.84
2018-03-26T09:37:40.923Z,57.36
2018-03-26T09:38:40.861Z,57.55
2018-03-26T09:39:40.787Z,57.84
2018-03-26T09:40:40.716Z,58.03
2018-03-26T09:41:40.634Z,59.08
2018-03-26T09:42:40.564Z,58.51
2018-03-26T09:43:40.492Z,58.51
2018-03-26T09:44:40.420Z,59.47
2018-03-26T09:45:40.354Z,59.37
2018-03-26T09:46:40.291Z,59.37
2018-03-26T09:47:40.247Z,59.40
2018-03-26T09:48:40.169Z,59.30
2018-03-26T09:49:40.101Z,59.49
2018-03-26T09:50:40.012Z,60.35
2018-03-26T09:51:39.976Z,60.35
2018-03-26T09:52:39.895Z,59.56
2018-03-26T09:53:39.823Z,59.69
2018-03-26T09:54:39.757Z,60.04
2018-03-26T09:55:39.672Z,60.52
2018-03-26T09:56:39.626Z,60.52
2018-03-26T09:57:39.547Z,60.52
2018-03-26T09:58:39.466Z,60.42
2018-03-26T09:59:39.407Z,60.33
2018-03-26T10:00:39.354Z,60.52
2018-03-26T10:01:39.277Z,60.52
2018-03-26T10:02:39.196Z,60.52
2018-03-26T10:03:39.143Z,60.80
2018-03-26T10:04:39.068Z,60.90
2018-03-26T10:05:39.005Z,60.80
2018-03-26T10:06:38.922Z,61.09
2018-03-26T10:07:38.863Z,60.99
2018-03-26T10:08:38.782Z,61.09
2018-03-26T10:09:38.719Z,60.99
2018-03-26T10:10:38.639Z,60.90
2018-03-26T10:11:38.593Z,61.22
2018-03-26T10:12:38.521Z,61.31
2018-03-26T10:13:38.455Z,60.93
2018-03-26T10:14:38.389Z,60.83
2018-03-26T10:15:38.339Z,60.74
2018-03-26T10:16:38.241Z,60.35
2018-03-26T10:17:38.177Z,60.45
2018-03-26T10:18:38.104Z,60.45
2018-03-26T10:19:38.030Z,61.12
2018-03-26T10:20:37.994Z,61.12
2018-03-26T10:21:37.914Z,61.12
2018-03-26T10:22:37.822Z,61.12
2018-03-26T10:23:37.763Z,61.12
2018-03-26T10:24:37.692Z,60.93
2018-03-26T10:25:37.622Z,61.41
2018-03-26T10:26:37.565Z,61.98
2018-03-26T10:27:37.482Z,61.88
2018-03-26T10:28:37.413Z,61.98
2018-03-26T10:29:37.369Z,61.41
2018-03-26T10:30:37.272Z,61.51
2018-03-26T10:31:37.208Z,61.60
2018-03-26T10:32:37.145Z,61.51
2018-03-26T10:33:37.091Z,61.98
2018-03-26T10:34:37.009Z,61.88
2018-03-26T10:35:36.949Z,62.37
2018-03-26T10:36:36.893Z,62.27
2018-03-26T10:37:36.807Z,62.08
2018-03-26T10:38:36.749Z,61.88
2018-03-26T10:39:36.685Z,61.98
2018-03-26T10:40:36.594Z,62.37
2018-03-26T10:41:36.526Z,62.84
2018-03-26T10:42:36.489Z,62.37
2018-03-26T10:43:36.411Z,62.08
2018-03-26T10:44:36.353Z,62.84
2018-03-26T10:45:36.277Z,62.74
2018-03-26T10:46:36.184Z,62.84
2018-03-26T10:47:36.136Z,62.65
2018-03-26T10:48:36.048Z,62.65
2018-03-26T10:49:35.982Z,62.55
2018-03-26T10:50:35.913Z,62.74
2018-03-26T10:51:35.848Z,62.17
2018-03-26T10:52:35.801Z,61.41
2018-03-26T10:53:35.708Z,60.45
2018-03-26T10:54:35.653Z,60.06
2018-03-26T10:55:35.566Z,59.49
2018-03-26T10:56:35.551Z,59.49
2018-03-26T10:57:35.448Z,59.30
2018-03-26T10:58:35.365Z,59.59
2018-03-26T10:59:35.312Z,59.97
2018-03-26T11:00:35.265Z,59.59
2018-03-26T11:01:35.165Z,60.06
2018-03-26T11:02:35.095Z,59.88
2018-03-26T11:03:35.016Z,59.88
2018-03-26T11:04:34.976Z,59.88
2018-03-26T11:05:34.882Z,60.06
2018-03-26T11:06:34.831Z,60.06
2018-03-26T11:07:34.740Z,59.59
2018-03-26T11:08:34.672Z,59.59
2018-03-26T11:09:34.604Z,59.49
2018-03-26T11:10:34.548Z,59.88
2018-03-26T11:11:34.469Z,60.06
2018-03-26T11:12:34.410Z,60.45
2018-03-26T11:13:34.336Z,59.88
2018-03-26T11:14:34.264Z,59.30
2018-03-26T11:15:34.202Z,59.49
2018-03-26T11:16:34.139Z,59.11
2018-03-26T11:17:34.074Z,59.40
2018-03-26T11:18:33.983Z,59.97
2018-03-26T11:19:33.934Z,60.55
2018-03-26T11:20:33.898Z,60.26
2018-03-26T11:21:33.776Z,59.59
2018-03-26T11:22:33.725Z,59.94
2018-03-26T11:23:33.642Z,60.64
2018-03-26T11:24:33.583Z,61.02
2018-03-26T11:25:33.511Z,60.64
2018-03-26T11:26:33.452Z,60.35
2018-03-26T11:27:33.381Z,59.40
2018-03-26T11:28:33.293Z,59.01
2018-03-26T11:29:33.222Z,59.11
2018-03-26T11:30:33.174Z,58.73
2018-03-26T11:31:33.099Z,57.68
2018-03-26T11:32:33.035Z,57.87
2018-03-26T11:33:33.011Z,57.10
2018-03-26T11:34:32.877Z,56.91
2018-03-26T11:35:32.837Z,56.43
2018-03-26T11:36:32.757Z,56.43
2018-03-26T11:37:32.675Z,56.43
2018-03-26T11:38:32.621Z,56.34
2018-03-26T11:39:32.526Z,55.96
2018-03-26T11:40:32.484Z,56.05
2018-03-26T11:41:32.387Z,55.38
2018-03-26T11:42:32.340Z,55.57
2018-03-26T11:43:32.254Z,56.15
2018-03-26T11:44:32.197Z,55.47
2018-03-26T11:45:32.129Z,55.47
2018-03-26T11:46:32.045Z,57.58
2018-03-26T11:47:31.992Z,57.97
2018-03-26T11:48:31.921Z,58.54
2018-03-26T11:49:31.868Z,59.20
2018-03-26T11:50:31.773Z,59.40
2018-03-26T11:51:31.695Z,60.93
2018-03-26T11:52:31.642Z,60.74
2018-03-26T11:53:31.570Z,60.55
2018-03-26T11:54:31.485Z,61.12
2018-03-26T11:55:31.437Z,61.02
2018-03-26T11:56:31.350Z,60.45
2018-03-26T11:57:31.309Z,59.59
2018-03-26T11:58:31.215Z,59.88
2018-03-26T11:59:31.171Z,60.45
2018-03-26T12:00:31.091Z,60.45
2018-03-26T12:01:31.008Z,60.64
2018-03-26T12:02:30.955Z,60.83
2018-03-26T12:03:30.880Z,60.74
2018-03-26T12:04:30.799Z,61.02
2018-03-26T12:05:30.760Z,61.41
2018-03-26T12:06:30.660Z,61.02
2018-03-26T12:07:30.607Z,61.60
2018-03-26T12:08:30.539Z,61.41
2018-03-26T12:09:30.456Z,61.51
2018-03-26T12:10:30.405Z,62.46
2018-03-26T12:11:30.317Z,61.88
2018-03-26T12:12:30.264Z,62.08
2018-03-26T12:13:30.193Z,62.08
2018-03-26T12:14:30.111Z,62.46
2018-03-26T12:15:30.039Z,61.60
2018-03-26T12:16:29.970Z,61.79
2018-03-26T12:17:29.895Z,61.31
2018-03-26T12:18:29.862Z,61.69
2018-03-26T12:19:29.785Z,61.88
2018-03-26T12:20:29.687Z,62.74
2018-03-26T12:21:29.641Z,63.32
2018-03-26T12:22:29.581Z,62.94
2018-03-26T12:23:29.502Z,61.98
2018-03-26T12:24:29.449Z,61.69
2018-03-26T12:25:29.363Z,61.79
2018-03-26T12:26:29.280Z,60.55
2018-03-26T12:27:29.247Z,60.55
2018-03-26T12:28:29.152Z,60.35
2018-03-26T12:29:29.095Z,60.55
2018-03-26T12:30:29.001Z,60.64
2018-03-26T12:31:28.927Z,60.45
2018-03-26T12:32:28.888Z,60.74
2018-03-26T12:33:28.792Z,60.64
2018-03-26T12:34:28.720Z,60.74
2018-03-26T12:35:28.655Z,60.35
2018-03-26T12:36:28.584Z,60.26
2018-03-26T12:37:28.515Z,58.83
2018-03-26T12:38:28.448Z,57.29
2018-03-26T12:39:28.374Z,56.05
2018-03-26T12:40:28.329Z,54.90
2018-03-26T12:41:28.233Z,54.14
2018-03-26T12:42:28.166Z,54.14
2018-03-26T12:43:28.108Z,54.14
2018-03-26T12:44:28.045Z,54.33
2018-03-26T12:45:27.968Z,53.85
2018-03-26T12:46:27.889Z,54.33
2018-03-26T12:47:27.841Z,54.52
2018-03-26T12:48:27.761Z,54.52
2018-03-26T12:49:27.693Z,54.04
2018-03-26T12:50:27.625Z,54.43
2018-03-26T12:51:27.557Z,53.85
2018-03-26T12:52:27.470Z,54.90
2018-03-26T12:53:27.403Z,55.38
2018-03-26T12:54:27.352Z,56.05
2018-03-26T12:55:27.262Z,57.39
2018-03-26T12:56:27.190Z,57.77